Latest Coastal Weather Observations for Rottnest Island

IDW60701

Issued at 6:12 pm WST Saturday 4 July 2015 (issued every 10 minutes, with the page automatically refreshed every 10 minutes)

About coastal observations | Map of coastal stations | Coastal observations for WA | Marine services | Other Formats
Station Details ID: 009193 Name: ROTTNEST ISLAND Lat: -32.01 Lon: 115.50 Height: 43.1 m
Data from the previous 72 hours. | See also: Recent months at Rottnest Island
Date/Time
WST
Temp

°C
Wind Pressure Rain
since 9am
mm
Weather Cloud Vis
km
Sea
Height
m
Swell
Dir
 
Speed
knots
Gust
knots
hPa Trend Height
m
Period
s
Dir
04/06:00pm 16.8 WSW 7 9 1021.1 - 0.0 - - - - - - -
04/05:30pm 17.1 WSW 9 11 1021.0 - 0.0 - - - - - - -
04/05:00pm 17.5 WSW 7 9 1020.9 - 0.0 - - - - - - -
04/04:30pm 18.2 WSW 10 13 1020.9 - 0.0 - - - - - - -
04/04:00pm 18.8 W 7 9 1021.0 - 0.0 - - - - - - -
04/03:30pm 18.5 WSW 10 12 1020.9 - 0.0 - - - - - - -
04/03:00pm 19.3 WSW 12 14 1021.0 - 0.0 - - - - - - -
04/02:30pm 18.7 WSW 11 15 1020.9 - 0.0 - - - - - - -
04/02:00pm 19.8 W 10 14 1020.9 - 0.0 - - - - - - -
04/01:30pm 18.4 WSW 13 16 1020.9 - 0.0 - - - - - - -
04/01:00pm 19.2 W 13 16 1021.3 - 0.0 - - - - - - -
04/12:30pm 19.8 WNW 11 13 1021.5 - 0.0 - - - - - - -
04/12:00pm 20.1 W 9 13 1021.8 - 0.0 - - - - - - -
04/11:30am 19.8 WNW 11 13 1022.3 - 0.0 - - - - - - -
04/11:00am 19.7 W 8 11 1022.5 - 0.0 - - - - - - -
04/10:30am 18.6 W 8 11 1022.9 - 0.0 - - - - - - -
04/10:00am 18.2 W 7 9 1022.8 - 0.0 - - - - - - -
04/09:30am 17.8 WSW 7 9 1022.8 - 0.0 - - - - - - -
04/09:00am 17.5 W 5 6 1022.5 - 0.6 - - - - - - -
04/08:30am 17.4 WSW 6 7 1022.4 - 0.6 - - - - - - -
04/08:00am 16.7 WSW 7 8 1022.2 - 0.6 - - - - - - -
04/07:30am 16.9 SW 5 6 1022.2 - 0.6 - - - - - - -
04/07:00am 16.8 WSW 6 7 1022.1 - 0.6 - - - - - - -
04/06:30am 16.4 SW 7 8 1022.0 - 0.6 - - - - - - -
04/06:00am 16.6 NNW 4 6 1021.8 - 0.6 - - - - - - -
04/05:30am 16.6 WNW 7 9 1021.7 - 0.6 - - - - - - -
04/05:00am 16.7 WSW 7 8 1021.6 - 0.6 - - - - - - -
04/04:30am 16.4 WSW 8 9 1021.6 - 0.6 - - - - - - -
04/04:00am 16.8 WNW 5 7 1021.8 - 0.6 - - - - - - -
04/03:30am 16.9 W 8 9 1021.9 - 0.4 - - - - - - -
04/03:00am 17.2 NW 7 7 1022.0 - 0.4 - - - - - - -
04/02:30am 17.0 NW 7 7 1022.2 - 0.4 - - - - - - -
04/02:00am 17.2 NW 5 7 1022.2 - 0.4 - - - - - - -
04/01:30am 17.3 W 4 5 1022.3 - 0.4 - - - - - - -
04/01:00am 17.4 WNW 4 5 1022.5 - 0.4 - - - - - - -
04/12:30am 17.4 WNW 4 5 1022.7 - 0.4 - - - - - - -
04/12:00am 17.5 WNW 4 4 1022.8 - 0.4 - - - - - - -
 
Date/Time
WST
Temp

°C
Wind Pressure Rain
since 9am
mm
Weather Cloud Vis
km
Sea
Height
m
Swell
Dir
 
Speed
knots
Gust
knots
hPa Trend Height
m
Period
s
Dir
03/11:30pm 17.5 WNW 4 5 1022.9 - 0.4 - - - - - - -
03/11:00pm 17.5 WNW 4 4 1022.9 - 0.4 - - - - - - -
03/10:30pm 17.6 WSW 3 4 1023.0 - 0.4 - - - - - - -
03/10:00pm 17.5 W 3 4 1023.0 - 0.4 - - - - - - -
03/09:30pm 17.6 WSW 4 5 1023.0 - 0.4 - - - - - - -
03/09:00pm 17.5 W 4 5 1023.0 - 0.4 - - - - - - -
03/08:30pm 17.5 WSW 4 5 1022.9 - 0.4 - - - - - - -
03/08:00pm 17.2 WSW 6 6 1022.9 - 0.4 - - - - - - -
03/07:30pm 17.2 WSW 5 6 1022.9 - 0.4 - - - - - - -
03/07:00pm 17.3 WSW 6 7 1022.8 - 0.4 - - - - - - -
03/06:30pm 17.4 W 7 8 1022.8 - 0.4 - - - - - - -
03/06:00pm 17.3 WSW 7 7 1022.6 - 0.4 - - - - - - -
03/05:30pm 17.4 SW 7 8 1022.3 - 0.4 - - - - - - -
03/05:00pm 18.3 WSW 7 8 1022.3 - 0.4 - - - - - - -
03/04:30pm 19.7 WSW 7 9 1022.2 - 0.4 - - - - - - -
03/04:00pm 19.6 WSW 8 10 1022.0 - 0.4 - - - - - - -
03/03:30pm 20.0 WSW 9 11 1021.8 - 0.4 - - - - - - -
03/03:00pm 20.3 SW 8 10 1021.7 - 0.4 - - - - - - -
03/02:30pm 20.3 SW 7 10 1021.6 - 0.4 - - - - - - -
03/02:00pm 19.8 NNW 5 6 1021.8 - 0.4 - - - - - - -
03/01:30pm 18.9 N 3 4 1021.9 - 0.4 - - - - - - -
03/01:00pm 19.0 N 5 6 1021.9 - 0.4 - - - - - - -
03/12:30pm 18.8 SE 2 4 1022.2 - 0.4 - - - - - - -
03/12:00pm 19.4 NE 4 6 1022.4 - 0.4 - - - - - - -
03/11:30am 18.6 ENE 5 6 1022.6 - 0.4 - - - - - - -
03/11:00am 18.9 ESE 4 6 1022.9 - 0.4 - - - - - - -
03/10:30am 18.1 SSE 9 11 1022.9 - 0.4 - - - - - - -
03/10:00am 19.2 S 7 9 1022.8 - 0.0 - - - - - - -
03/09:30am 17.7 S 10 12 1022.6 - 0.0 - - - - - - -
03/09:00am 18.7 SSW 6 8 1022.6 - 2.0 Recent precip. - - - - - -
03/08:30am 17.7 S 9 12 1022.4 - 2.0 - - - - - - -
03/08:00am 18.0 SSW 9 13 1022.1 - 1.4 - - - - - - -
03/07:30am 17.8 SW 8 10 1021.9 - 1.4 - - - - - - -
03/07:00am 18.0 SW 8 10 1021.4 - 1.4 - - - - - - -
03/06:30am 17.5 WSW 8 9 1021.2 - 1.4 - - - - - - -
03/06:00am 17.4 SW 8 10 1020.9 - 1.4 - - - - - - -
03/05:30am 17.4 SW 8 9 1020.7 - 1.4 - - - - - - -
03/05:00am 17.4 WSW 7 10 1020.7 - 1.4 - - - - - - -
03/04:30am 17.9 W 7 9 1020.6 - 1.4 - - - - - - -
03/04:00am 17.7 WSW 8 10 1020.7 - 1.4 - - - - - - -
03/03:30am 17.6 WSW 9 11 1020.9 - 1.4 - - - - - - -
03/03:00am 18.0 WSW 10 13 1021.0 - 1.4 - - - - - - -
03/02:30am 18.2 WSW 10 13 1021.0 - 1.4 - - - - - - -
03/02:00am 18.3 W 9 13 1021.2 - 1.4 - - - - - - -
03/01:30am 18.3 W 9 12 1021.2 - 1.4 - - - - - - -
03/01:00am 17.5 NNE 11 15 1021.2 - 1.4 - - - - - - -
03/12:30am 16.9 NNE 10 13 1021.2 - 1.4 - - - - - - -
03/12:00am 16.9 N 12 15 1021.4 - 1.4 - - - - - - -
 
Date/Time
WST
Temp

°C
Wind Pressure Rain
since 9am
mm
Weather Cloud Vis
km
Sea
Height
m
Swell
Dir
 
Speed
knots
Gust
knots
hPa Trend Height
m
Period
s
Dir
02/11:30pm 16.8 N 11 14 1021.7 - 1.4 - - - - - - -
02/11:00pm 17.0 N 13 16 1021.7 - 1.4 - - - - - - -
02/10:30pm 16.9 N 12 15 1021.9 - 1.4 - - - - - - -
02/10:00pm 16.8 N 13 17 1022.0 - 1.4 - - - - - - -
02/09:30pm 16.9 N 12 15 1021.9 - 1.4 - - - - - - -
02/09:00pm 16.7 N 17 21 1021.7 - 1.4 Recent precip. - - - - - -
02/08:30pm 17.1 N 14 19 1021.9 - 1.4 - - - - - - -
02/08:00pm 16.9 N 15 18 1021.8 - 1.2 - - - - - - -
02/07:30pm 17.3 N 15 21 1021.5 - 1.2 - - - - - - -
02/07:29pm 17.3 N 15 21 1021.5 - 1.2 - - - - - - -
02/07:00pm 17.8 NNW 8 11 1021.5 - 1.2 - - - - - - -
02/06:30pm 17.7 NW 10 12 1021.4 - 1.2 - - - - - - -
02/06:00pm 17.7 NNW 10 14 1020.4 - 1.0 Rain - - - - - -
02/05:30pm 18.5 NNW 11 14 1020.8 - 0.4 - - - - - - -
02/05:00pm 17.8 NNW 12 14 1020.8 - 0.4 - - - - - - -
02/04:30pm 17.5 N 11 14 1020.6 - 0.4 - - - - - - -
02/04:00pm 18.3 N 14 17 1020.4 - 0.0 - - - - - - -
02/03:30pm 18.4 N 13 17 1020.3 - 0.0 - - - - - - -
02/03:00pm 18.8 N 13 16 1020.3 - 0.0 - - - - - - -
02/02:30pm 19.0 N 15 19 1020.2 - 0.0 - - - - - - -
02/02:00pm 18.8 N 14 18 1020.5 - 0.0 - - - - - - -
02/01:30pm 19.0 NNE 14 17 1020.6 - 0.0 - - - - - - -
02/01:00pm 18.9 NNE 14 16 1020.8 - 0.0 - - - - - - -
02/12:30pm 18.3 N 15 19 1021.5 - 0.0 - - - - - - -
02/12:00pm 18.4 NNE 15 19 1021.7 - 0.0 - - - - - - -
02/11:30am 17.6 NNE 14 17 1022.2 - 0.0 - - - - - - -
02/11:00am 17.8 NNE 13 17 1022.2 - 0.0 - - - - - - -
02/10:30am 17.3 NNE 11 14 1022.5 - 0.0 - - - - - - -
02/10:00am 16.6 NNE 9 13 1023.0 - 0.0 - - - - - - -
02/09:30am 16.5 NE 13 16 1022.6 - 0.0 - - - - - - -
02/09:00am 16.6 NE 14 18 1022.2 - 4.8 - - - - - - -
02/08:30am 16.6 NE 13 17 1022.2 - 4.8 - - - - - - -
02/08:00am 16.7 NE 13 17 1022.2 - 4.8 - - - - - - -
02/07:30am 16.8 NE 13 16 1022.0 - 4.8 - - - - - - -
02/07:00am 16.5 NE 13 18 1021.7 - 4.8 - - - - - - -
02/06:30am 16.7 NE 10 17 1021.5 - 4.8 - - - - - - -
02/06:00am 16.4 NE 11 15 1021.3 - 4.8 - - - - - - -
02/05:30am 16.2 ENE 12 15 1021.3 - 4.8 - - - - - - -
02/05:00am 16.4 NE 11 15 1021.2 - 4.8 - - - - - - -
02/04:30am 16.9 NE 10 12 1021.5 - 4.8 - - - - - - -
02/04:00am 16.5 NE 8 11 1021.4 - 4.8 - - - - - - -
02/03:30am 16.7 NNE 18 23 1022.3 - 4.8 - - - - - - -
02/03:00am 16.6 NNE 12 21 1022.6 - 4.8 - - - - - - -
02/02:30am 16.5 NE 10 13 1022.3 - 4.8 - - - - - - -
02/02:00am 16.0 ENE 9 13 1021.9 - 4.8 - - - - - - -
02/01:30am 15.5 ENE 9 11 1022.4 - 4.8 - - - - - - -
02/01:00am 15.4 ENE 10 12 1022.9 - 4.8 - - - - - - -
02/12:30am 15.4 ENE 8 10 1023.3 - 4.8 - - - - - - -
02/12:00am 15.5 N 5 6 1023.6 - 4.8 - - - - - - -
 
Date/Time
WST
Temp

°C
Wind Pressure Rain
since 9am
mm
Weather Cloud Vis
km
Sea
Height
m
Swell
Dir
 
Speed
knots
Gust
knots
hPa Trend Height
m
Period
s
Dir
01/11:30pm 15.6 NE 11 14 1023.5 - 4.8 - - - - - - -
01/11:00pm 15.4 NE 11 13 1023.7 - 4.8 - - - - - - -
01/10:30pm 15.3 NE 12 15 1023.5 - 4.8 - - - - - - -
01/10:00pm 15.6 NE 11 14 1023.5 - 4.8 - - - - - - -
01/09:30pm 15.5 NNE 12 15 1024.0 - 4.8 - - - - - - -
01/09:00pm 15.5 NNE 11 14 1024.1 - 4.6 Rain - - - - - -
01/08:30pm 15.8 NNE 11 14 1024.4 - 4.0 - - - - - - -
01/08:00pm 16.2 NNE 9 10 1023.9 - 4.0 - - - - - - -
01/07:30pm 16.6 NNE 8 11 1023.9 - 4.0 - - - - - - -
01/07:00pm 17.1 N 8 11 1023.7 - 3.8 - - - - - - -
01/06:30pm 16.9 N 6 8 1023.5 - 3.6 - - - - - - -

Other Formats:

Comma delimited format used in spreadsheet applications
http://www.bom.gov.au/fwo/IDW60701/IDW60701.94602.axf

JavaScript Object Notation format (JSON) in row-major order
http://www.bom.gov.au/fwo/IDW60701/IDW60701.94602.json